Time;durP1;ratioP1;P1;durP2;ratioP2;P2;SDS_P1;SDS_P2;PMS_P1;PMS_P2;Temp;Humidity;BMP_temperature;BMP_pressure;BME280_temperature;BME280_humidity;BME280_pressure;Samples;Min_cycle;Max_cycle;Signal;HPM_P1;HPM_P2
2022/03/13 00:00:27;;;;;;;13.88;9.63;;;;;;;11.84;54.13;101415.75;5036807;28;20044;-46
2022/03/13 00:02:55;;;;;;;14.23;10.13;;;;;;;11.83;54.81;101411.34;5060896;28;20498;-46
2022/03/13 00:05:23;;;;;;;14.88;9.68;;;;;;;11.84;55.03;101413.03;5053081;28;20033;-49
2022/03/13 00:07:54;;;;;;;13.27;9.80;;;;;;;11.85;54.34;101411.91;5058652;28;20128;-43
2022/03/13 00:10:27;;;;;;;15.15;9.27;;;;;;;11.82;54.27;101408.91;5054915;28;20147;-43
2022/03/13 00:12:56;;;;;;;14.00;9.40;;;;;;;11.81;54.81;101418.16;5071332;28;20086;-46
2022/03/13 00:15:38;;;;;;;14.30;9.82;;;;;;;11.82;55.19;101417.91;5064457;28;20052;-46
2022/03/13 00:18:06;;;;;;;14.95;9.20;;;;;;;11.79;54.75;101413.00;5035412;28;20045;-46
2022/03/13 00:20:34;;;;;;;13.38;9.02;;;;;;;11.80;55.17;101414.63;5035718;28;20047;-42
2022/03/13 00:23:02;;;;;;;13.35;8.70;;;;;;;11.76;55.35;101418.13;5067664;28;20045;-42
2022/03/13 00:25:29;;;;;;;11.57;8.30;;;;;;;11.74;55.45;101412.94;5055263;28;20049;-42
2022/03/13 00:27:57;;;;;;;13.50;8.30;;;;;;;11.73;55.43;101419.47;5056572;28;20037;-41
2022/03/13 00:30:25;;;;;;;14.57;9.02;;;;;;;11.70;55.52;101409.09;5056748;28;20487;-42
2022/03/13 00:32:54;;;;;;;14.85;8.30;;;;;;;11.70;55.71;101403.63;5062253;28;20410;-43
2022/03/13 00:35:22;;;;;;;11.27;8.50;;;;;;;11.72;56.25;101402.28;5066299;28;20496;-43
2022/03/13 00:37:49;;;;;;;15.85;9.82;;;;;;;11.72;55.61;101399.56;5053933;28;20051;-46
2022/03/13 00:40:17;;;;;;;14.70;9.57;;;;;;;11.74;55.22;101404.75;5076581;28;20041;-45
2022/03/13 00:42:48;;;;;;;14.23;8.90;;;;;;;11.75;55.18;101397.38;5065180;28;20542;-46
2022/03/13 00:45:15;;;;;;;18.13;10.10;;;;;;;11.76;55.80;101399.88;5060508;28;20041;-46
2022/03/13 00:47:43;;;;;;;14.18;9.45;;;;;;;11.75;55.72;101395.47;5076214;28;20108;-47
2022/03/13 00:50:11;;;;;;;21.08;10.23;;;;;;;11.76;55.42;101390.81;5076429;28;20040;-49
2022/03/13 00:52:39;;;;;;;14.55;10.18;;;;;;;11.75;55.66;101373.63;5074549;28;20061;-50
2022/03/13 00:55:07;;;;;;;15.38;9.85;;;;;;;11.73;55.33;101376.63;5076048;28;20041;-45
2022/03/13 00:57:35;;;;;;;16.58;10.25;;;;;;;11.73;55.84;101370.34;5074862;28;20102;-46
2022/03/13 01:00:05;;;;;;;16.92;10.25;;;;;;;11.70;55.80;101368.16;5058535;28;20047;-47
2022/03/13 01:02:34;;;;;;;16.45;10.23;;;;;;;11.70;55.50;101370.88;5046938;28;20106;-43
2022/03/13 01:05:02;;;;;;;12.95;9.65;;;;;;;11.71;55.30;101369.78;5055923;28;20527;-44
2022/03/13 01:07:29;;;;;;;15.93;10.65;;;;;;;11.71;55.23;101369.78;5043526;28;20520;-44
2022/03/13 01:09:57;;;;;;;15.70;10.18;;;;;;;11.66;55.63;101364.28;5038439;28;20048;-44
2022/03/13 01:12:25;;;;;;;15.45;10.40;;;;;;;11.63;55.76;101370.28;5056923;28;20039;-46
2022/03/13 01:14:52;;;;;;;15.13;11.00;;;;;;;11.63;56.33;101370.28;5066891;28;20518;-47
2022/03/13 01:17:20;;;;;;;17.77;10.82;;;;;;;11.60;55.60;101363.44;5049804;28;20403;-47
2022/03/13 01:19:48;;;;;;;19.50;11.40;;;;;;;11.59;56.32;101371.88;5055589;28;20041;-42
2022/03/13 01:22:16;;;;;;;17.58;11.05;;;;;;;11.59;56.16;101369.13;5055917;28;20044;-46
2022/03/13 01:24:44;;;;;;;14.75;10.52;;;;;;;11.57;55.97;101360.38;5056576;28;20048;-44
2022/03/13 01:27:15;;;;;;;15.98;10.48;;;;;;;11.54;57.03;101355.47;5022716;28;20045;-46
2022/03/13 01:29:44;;;;;;;13.63;10.13;;;;;;;11.52;56.81;101353.81;5055622;28;20557;-45
2022/03/13 01:32:16;;;;;;;15.68;9.50;;;;;;;11.53;56.75;101354.66;5037681;28;20041;-44
2022/03/13 01:34:47;;;;;;;13.27;9.95;;;;;;;11.51;56.50;101341.25;5056578;28;20040;-44
2022/03/13 01:37:36;;;;;;;14.35;10.35;;;;;;;11.52;57.43;101342.09;5050085;28;20051;-45
2022/03/13 01:40:10;;;;;;;15.13;9.15;;;;;;;11.50;57.31;101334.16;5055520;28;20045;-46
2022/03/13 01:42:44;;;;;;;14.65;8.95;;;;;;;11.50;56.83;101333.34;5038679;28;20051;-43
2022/03/13 01:45:19;;;;;;;12.45;9.00;;;;;;;11.51;57.37;101327.59;5067867;28;20037;-46
2022/03/13 01:47:48;;;;;;;12.90;9.48;;;;;;;11.52;57.22;101326.53;5057481;28;20305;-44
2022/03/13 01:50:17;;;;;;;13.85;8.95;;;;;;;11.52;57.66;101332.00;5075391;28;20044;-42
2022/03/13 01:52:47;;;;;;;13.15;9.35;;;;;;;11.54;56.78;101326.25;5057297;28;20072;-45
2022/03/13 01:55:16;;;;;;;13.48;8.63;;;;;;;11.54;57.45;101325.44;5065242;28;20483;-43
2022/03/13 01:57:47;;;;;;;16.90;9.52;;;;;;;11.54;57.90;101318.06;5038648;28;20044;-45
2022/03/13 02:00:19;;;;;;;13.20;8.95;;;;;;;11.53;57.47;101319.16;5021534;28;20442;-43
2022/03/13 02:02:48;;;;;;;13.07;8.70;;;;;;;11.52;57.84;101318.34;5037695;28;20099;-44
2022/03/13 02:05:35;;;;;;;13.77;9.32;;;;;;;11.50;57.21;101308.78;5058767;28;20032;-45
2022/03/13 02:08:13;;;;;;;12.93;8.52;;;;;;;11.48;57.65;101314.50;5072869;28;20490;-45
2022/03/13 02:10:41;;;;;;;12.35;8.32;;;;;;;11.47;57.65;101318.31;5074941;28;20048;-44
2022/03/13 02:13:10;;;;;;;12.15;8.77;;;;;;;11.46;58.03;101313.13;5074912;28;20075;-50
2022/03/13 02:15:39;;;;;;;13.05;9.15;;;;;;;11.45;58.18;101309.56;5050856;28;20041;-45
2022/03/13 02:18:07;;;;;;;13.05;9.10;;;;;;;11.45;58.13;101317.75;5036958;28;20079;-45
2022/03/13 02:20:43;;;;;;;13.80;9.00;;;;;;;11.44;57.94;101307.91;5054773;28;20051;-45
2022/03/13 02:23:20;;;;;;;13.65;8.48;;;;;;;11.44;57.96;101313.38;5062721;28;20051;-47
2022/03/13 02:25:57;;;;;;;14.18;8.50;;;;;;;11.46;58.02;101310.38;5074620;28;20051;-46
2022/03/13 02:28:25;;;;;;;;;;;;;;;11.47;57.45;101304.69;5057295;28;20131;-44
2022/03/13 02:31:02;;;;;;;13.85;7.85;;;;;;;11.46;58.15;101299.47;5074355;28;19928;-47
2022/03/13 02:33:29;;;;;;;12.32;8.30;;;;;;;11.45;58.26;101298.66;5065154;28;20044;-45
2022/03/13 02:36:02;;;;;;;12.25;8.10;;;;;;;11.46;58.16;101294.81;5037607;28;20044;-47
2022/03/13 02:38:32;;;;;;;13.68;9.18;;;;;;;11.47;58.38;101291.03;5036588;28;20084;-47
2022/03/13 02:40:59;;;;;;;16.00;8.55;;;;;;;11.45;58.60;101303.28;5036429;28;20049;-44
2022/03/13 02:43:27;;;;;;;14.32;8.38;;;;;;;11.43;58.53;101289.91;5060128;28;20037;-47
2022/03/13 02:45:55;;;;;;;12.75;9.25;;;;;;;11.41;58.51;101292.06;5052106;28;20045;-46
2022/03/13 02:48:22;;;;;;;13.82;8.95;;;;;;;11.41;58.07;101297.53;5036342;28;20492;-46
2022/03/13 02:50:51;;;;;;;16.35;9.15;;;;;;;11.41;58.15;101291.25;5036790;28;20045;-45
2022/03/13 02:53:18;;;;;;;15.95;9.25;;;;;;;11.40;58.34;101290.44;5028368;28;20044;-45
2022/03/13 02:55:47;;;;;;;12.15;9.13;;;;;;;11.38;58.37;101284.41;5053864;28;20037;-45
2022/03/13 02:58:17;;;;;;;16.17;9.73;;;;;;;11.39;58.40;101287.97;5053917;28;20045;-46
2022/03/13 03:00:50;;;;;;;13.65;10.05;;;;;;;11.38;57.69;101281.69;5054042;28;20041;-46
2022/03/13 03:03:19;;;;;;;14.32;9.77;;;;;;;11.38;58.29;101287.16;5047918;28;20068;-44
2022/03/13 03:05:49;;;;;;;14.68;9.82;;;;;;;11.38;58.34;101289.88;5054598;28;20037;-45
2022/03/13 03:08:18;;;;;;;15.45;10.82;;;;;;;11.36;57.83;101280.31;5055454;28;20084;-45
2022/03/13 03:10:46;;;;;;;15.60;10.35;;;;;;;11.36;58.21;101289.31;5073622;28;20048;-46
2022/03/13 03:13:15;;;;;;;15.57;10.50;;;;;;;11.35;58.48;101287.66;5063456;28;20044;-45
2022/03/13 03:15:43;;;;;;;13.98;9.90;;;;;;;11.35;57.97;101293.09;5053784;28;20144;-44
2022/03/13 03:18:11;;;;;;;14.23;10.07;;;;;;;11.35;58.24;101286.81;5036617;28;20055;-48
2022/03/13 03:20:40;;;;;;;14.20;10.60;;;;;;;11.33;57.83;101287.09;5053533;28;20396;-47
2022/03/13 03:23:09;;;;;;;15.73;10.95;;;;;;;11.32;58.02;101282.72;5022850;28;20120;-46
2022/03/13 03:25:38;;;;;;;17.20;10.85;;;;;;;11.32;58.33;101288.19;5053329;28;20087;-46
2022/03/13 03:28:05;;;;;;;18.83;11.10;;;;;;;11.28;58.12;101287.88;5035925;28;20041;-47
2022/03/13 03:30:33;;;;;;;16.33;11.45;;;;;;;11.27;58.55;101286.22;5053383;28;20045;-47
2022/03/13 03:33:02;;;;;;;15.43;11.27;;;;;;;11.23;58.66;101274.22;5035594;28;20041;-48
2022/03/13 03:35:31;;;;;;;16.65;11.38;;;;;;;11.23;58.13;101279.66;5073375;28;20064;-46
2022/03/13 03:37:59;;;;;;;14.75;11.32;;;;;;;11.19;58.25;101277.72;5073270;28;20051;-44
2022/03/13 03:40:29;;;;;;;17.15;11.93;;;;;;;11.17;58.02;101279.88;5073282;28;20048;-44
2022/03/13 03:42:58;;;;;;;15.93;12.00;;;;;;;11.18;57.50;101278.78;5051405;28;20037;-44
2022/03/13 03:45:26;;;;;;;21.05;11.98;;;;;;;11.19;57.67;101283.19;5039734;28;20510;-44
2022/03/13 03:47:54;;;;;;;18.15;12.88;;;;;;;11.19;56.95;101273.09;5073044;28;20036;-46
2022/03/13 03:50:22;;;;;;;17.58;13.00;;;;;;;11.19;56.85;101272.28;5055434;28;20068;-46
2022/03/13 03:52:55;;;;;;;16.48;11.95;;;;;;;11.17;56.72;101269.78;5053617;28;20045;-47
2022/03/13 03:55:24;;;;;;;16.08;12.45;;;;;;;11.16;56.75;101273.63;5060908;28;20033;-44
2022/03/13 03:57:52;;;;;;;18.83;12.38;;;;;;;11.16;56.58;101275.50;5035538;28;20033;-45
2022/03/13 04:00:24;;;;;;;17.77;12.50;;;;;;;11.16;56.52;101272.78;5053032;28;20057;-44
2022/03/13 04:02:52;;;;;;;17.20;12.77;;;;;;;11.15;55.62;101273.88;5060995;28;20047;-43
2022/03/13 04:05:20;;;;;;;18.10;12.10;;;;;;;11.12;56.00;101275.22;5050842;28;20052;-41
2022/03/13 04:07:49;;;;;;;14.98;11.38;;;;;;;11.14;55.35;101269.50;5052674;28;20072;-42
2022/03/13 04:10:16;;;;;;;16.00;12.23;;;;;;;11.15;55.38;101276.59;5052934;28;20056;-42
2022/03/13 04:12:44;;;;;;;20.65;13.55;;;;;;;11.14;55.47;101274.97;5053433;28;20041;-46
2022/03/13 04:15:11;;;;;;;17.58;12.23;;;;;;;11.13;54.85;101271.38;5061360;28;20045;-45
2022/03/13 04:17:40;;;;;;;19.50;12.88;;;;;;;11.07;55.11;101267.00;5072655;28;20051;-45
2022/03/13 04:20:08;;;;;;;19.90;13.23;;;;;;;11.03;55.18;101266.69;5055168;28;20052;-43
2022/03/13 04:22:36;;;;;;;21.15;13.23;;;;;;;11.02;55.17;101273.22;5065208;28;20037;-44
2022/03/13 04:25:05;;;;;;;18.27;12.88;;;;;;;10.99;55.31;101268.28;5055691;28;20055;-44
2022/03/13 04:27:35;;;;;;;16.00;11.95;;;;;;;10.98;55.31;101269.34;5072912;28;20041;-41
2022/03/13 04:30:04;;;;;;;20.88;13.48;;;;;;;10.97;55.13;101265.00;5072614;28;20044;-44
2022/03/13 04:32:32;;;;;;;18.05;12.80;;;;;;;10.90;55.23;101261.66;5072093;28;20411;-41
2022/03/13 04:35:00;;;;;;;18.88;13.00;;;;;;;10.90;55.36;101258.94;5073197;28;20049;-47
2022/03/13 04:37:28;;;;;;;17.42;12.80;;;;;;;10.94;55.08;101260.03;5053805;28;20041;-46
2022/03/13 04:39:55;;;;;;;20.17;13.82;;;;;;;10.95;54.69;101261.72;5052453;28;20052;-45
2022/03/13 04:42:23;;;;;;;19.65;13.57;;;;;;;10.94;55.03;101270.13;5054102;28;20044;-44
2022/03/13 04:44:51;;;;;;;18.45;12.55;;;;;;;10.94;55.08;101275.59;5034930;28;20041;-44
2022/03/13 04:47:19;;;;;;;20.00;13.45;;;;;;;10.95;54.30;101263.63;5061848;28;20067;-44
2022/03/13 04:49:46;;;;;;;20.45;14.75;;;;;;;10.86;54.39;101257.81;5053318;28;20122;-43
2022/03/13 04:52:14;;;;;;;20.70;13.77;;;;;;;10.78;55.15;101258.28;5048409;28;20056;-41
2022/03/13 04:54:42;;;;;;;19.77;13.25;;;;;;;10.77;55.26;101270.25;5052689;28;20045;-42
2022/03/13 04:57:10;;;;;;;21.67;14.65;;;;;;;10.77;54.67;101262.09;5038004;28;20033;-42
2022/03/13 04:59:37;;;;;;;20.02;14.05;;;;;;;10.76;54.50;101263.19;5052445;28;20047;-41
2022/03/13 05:02:05;;;;;;;18.10;13.63;;;;;;;10.78;54.83;101269.19;5059057;28;20033;-43
2022/03/13 05:04:34;;;;;;;20.30;13.80;;;;;;;10.80;54.73;101267.00;5054669;28;20048;-44
2022/03/13 05:07:02;;;;;;;19.30;14.57;;;;;;;10.81;54.23;101268.66;5054109;28;20048;-46
2022/03/13 05:09:29;;;;;;;19.50;13.55;;;;;;;10.82;54.76;101278.47;5075591;28;20175;-44
2022/03/13 05:11:57;;;;;;;18.40;13.93;;;;;;;10.83;54.12;101280.13;5076100;28;20379;-45
2022/03/13 05:14:24;;;;;;;20.80;14.35;;;;;;;10.85;54.05;101280.72;5075927;28;20558;-44
2022/03/13 05:16:52;;;;;;;19.60;13.20;;;;;;;10.83;53.91;101274.69;5075786;28;20041;-44
2022/03/13 05:19:20;;;;;;;18.67;14.27;;;;;;;10.77;53.99;101275.72;5056640;28;20068;-47
2022/03/13 05:21:51;;;;;;;24.23;13.27;;;;;;;10.74;54.46;101270.78;5075667;28;20582;-46
2022/03/13 05:24:19;;;;;;;19.48;13.65;;;;;;;10.75;54.40;101280.59;5075884;28;20136;-44
2022/03/13 05:26:47;;;;;;;19.95;12.90;;;;;;;10.76;54.60;101271.34;5074872;28;20044;-48
2022/03/13 05:29:14;;;;;;;18.02;12.85;;;;;;;10.74;54.22;101274.31;5074893;28;20138;-47
2022/03/13 05:31:43;;;;;;;17.95;13.20;;;;;;;10.73;54.99;101269.97;5074457;28;20051;-47
2022/03/13 05:34:14;;;;;;;15.77;12.65;;;;;;;10.72;54.46;101265.56;5055553;28;20060;-46
2022/03/13 05:36:41;;;;;;;17.58;13.48;;;;;;;10.73;54.54;101258.25;5054241;28;20041;-45
2022/03/13 05:39:09;;;;;;;17.08;12.23;;;;;;;10.65;54.95;101268.53;5073641;28;20050;-44
2022/03/13 05:41:39;;;;;;;18.10;12.60;;;;;;;10.64;55.22;101264.16;5075588;28;20545;-47
2022/03/13 05:44:10;;;;;;;19.92;13.00;;;;;;;10.65;54.59;101270.41;5075393;28;20045;-45
2022/03/13 05:46:38;;;;;;;18.40;13.05;;;;;;;10.63;54.83;101265.25;5074905;28;20033;-47
2022/03/13 05:49:08;;;;;;;21.95;12.77;;;;;;;10.62;54.43;101268.22;5073155;28;20033;-46
2022/03/13 05:51:40;;;;;;;17.33;12.75;;;;;;;10.59;54.51;101266.81;5075632;28;20045;-46
2022/03/13 05:54:08;;;;;;;19.13;12.35;;;;;;;10.58;54.54;101269.78;5058338;28;20043;-47
2022/03/13 05:56:37;;;;;;;18.20;12.65;;;;;;;10.59;54.79;101269.56;5074428;28;20037;-45
2022/03/13 05:59:04;;;;;;;18.25;12.38;;;;;;;10.62;54.83;101273.66;5074956;28;20045;-45
2022/03/13 06:01:32;;;;;;;17.95;12.57;;;;;;;10.60;54.74;101273.09;5074995;28;20048;-45
2022/03/13 06:04:00;;;;;;;18.65;13.32;;;;;;;10.54;55.36;101276.88;5074986;28;20403;-46
2022/03/13 06:06:30;;;;;;;18.92;12.75;;;;;;;10.51;54.97;101283.66;5070085;28;20067;-47
2022/03/13 06:08:57;;;;;;;17.27;12.90;;;;;;;10.41;56.14;101283.50;5069985;28;20057;-45
2022/03/13 06:11:25;;;;;;;17.27;11.45;;;;;;;10.37;56.69;101276.94;5074750;28;20055;-46
2022/03/13 06:13:52;;;;;;;20.27;13.30;;;;;;;10.38;56.42;101273.94;5040486;28;20052;-47
2022/03/13 06:16:21;;;;;;;17.85;13.10;;;;;;;10.42;56.72;101266.09;5073620;28;20048;-47
2022/03/13 06:18:49;;;;;;;16.70;11.52;;;;;;;10.45;56.70;101271.03;5072507;28;20033;-45
2022/03/13 06:21:17;;;;;;;18.20;12.57;;;;;;;10.49;56.50;101268.63;5057037;28;20053;-45
2022/03/13 06:23:44;;;;;;;16.75;12.13;;;;;;;10.50;56.79;101265.63;5074750;28;20499;-48
2022/03/13 06:26:12;;;;;;;17.23;12.32;;;;;;;10.51;56.75;101267.31;5055785;28;20043;-46
2022/03/13 06:28:40;;;;;;;18.52;12.23;;;;;;;10.52;57.20;101266.22;5059424;28;20037;-45
2022/03/13 06:31:09;;;;;;;16.92;12.63;;;;;;;10.44;57.08;101267.50;5037309;28;20504;-47
2022/03/13 06:33:37;;;;;;;17.42;12.32;;;;;;;10.39;57.78;101274.78;5051889;28;20099;-46
2022/03/13 06:36:05;;;;;;;17.25;11.93;;;;;;;10.39;57.90;101263.88;5036507;28;20114;-45
2022/03/13 06:38:33;;;;;;;18.30;12.70;;;;;;;10.41;57.79;101265.28;5073392;28;20037;-46
2022/03/13 06:41:00;;;;;;;17.75;12.02;;;;;;;10.41;57.71;101273.47;5056547;28;20406;-46
2022/03/13 06:43:28;;;;;;;19.02;11.27;;;;;;;10.39;58.10;101278.34;5074250;28;20048;-47
2022/03/13 06:45:56;;;;;;;17.48;12.60;;;;;;;10.44;57.47;101272.13;5055159;28;20495;-47
2022/03/13 06:48:26;;;;;;;16.80;11.85;;;;;;;10.45;56.97;101271.03;5054903;28;20396;-46
2022/03/13 06:50:56;;;;;;;16.15;11.70;;;;;;;10.42;57.50;101274.28;5054015;28;20072;-44
2022/03/13 06:53:25;;;;;;;17.02;11.45;;;;;;;10.43;57.61;101281.38;5053774;28;20103;-44
2022/03/13 06:55:52;;;;;;;19.90;12.65;;;;;;;10.45;57.68;101276.47;5050846;28;20040;-45
2022/03/13 06:58:20;;;;;;;17.63;12.85;;;;;;;10.46;58.05;101275.38;5063469;28;20380;-45
2022/03/13 07:00:50;;;;;;;17.13;11.95;;;;;;;10.48;57.64;101284.13;5055882;28;20044;-44
2022/03/13 07:03:18;;;;;;;15.38;11.75;;;;;;;10.48;57.68;101281.41;5073454;28;20056;-45
2022/03/13 07:05:46;;;;;;;17.02;12.60;;;;;;;10.47;57.38;101281.69;5071734;28;20044;-47
2022/03/13 07:08:15;;;;;;;15.20;11.70;;;;;;;10.47;57.50;101285.22;5053939;28;20059;-47
2022/03/13 07:10:43;;;;;;;16.00;11.60;;;;;;;10.40;57.48;101281.88;5051534;28;20045;-47
2022/03/13 07:13:11;;;;;;;19.33;12.93;;;;;;;10.35;57.95;101284.56;5053295;28;20518;-46
2022/03/13 07:15:40;;;;;;;19.75;12.75;;;;;;;10.35;58.06;101279.09;5055882;28;20048;-47
2022/03/13 07:18:07;;;;;;;15.77;11.70;;;;;;;10.24;57.81;101278.94;5051896;28;20072;-46
2022/03/13 07:20:35;;;;;;;17.90;12.02;;;;;;;10.13;58.19;101277.19;5053607;28;20082;-47
2022/03/13 07:23:03;;;;;;;15.57;11.43;;;;;;;10.12;58.38;101280.97;5054150;28;20045;-49
2022/03/13 07:25:31;;;;;;;16.40;11.40;;;;;;;10.14;58.48;101275.28;5053068;28;20048;-46
2022/03/13 07:27:58;;;;;;;18.63;11.50;;;;;;;10.18;57.72;101282.69;5055128;28;20049;-45
2022/03/13 07:30:26;;;;;;;16.95;13.13;;;;;;;10.17;58.02;101283.78;5053249;28;20041;-45
2022/03/13 07:32:54;;;;;;;21.40;15.35;;;;;;;10.20;57.22;101282.44;5053118;28;20045;-47
2022/03/13 07:35:21;;;;;;;23.23;16.55;;;;;;;10.14;56.79;101284.25;5053267;28;20045;-49
2022/03/13 07:37:49;;;;;;;20.65;15.55;;;;;;;10.03;56.55;101283.31;5053906;28;20041;-44
2022/03/13 07:40:17;;;;;;;24.90;14.85;;;;;;;10.02;56.91;101284.38;5052872;28;20562;-46
2022/03/13 07:42:45;;;;;;;20.20;13.50;;;;;;;10.10;57.15;101277.69;5053952;28;20041;-42
2022/03/13 07:45:13;;;;;;;19.75;12.95;;;;;;;10.18;56.76;101281.88;5052875;28;20614;-41
2022/03/13 07:47:40;;;;;;;18.13;12.50;;;;;;;10.19;56.32;101280.78;5069120;28;20123;-45
2022/03/13 07:50:09;;;;;;;25.02;13.52;;;;;;;10.17;56.03;101277.50;5072437;28;20471;-44
2022/03/13 07:52:37;;;;;;;16.95;12.25;;;;;;;10.12;56.49;101271.97;5055294;28;20403;-44
2022/03/13 07:55:05;;;;;;;18.92;12.98;;;;;;;10.02;56.77;101278.94;5071859;28;20471;-48
2022/03/13 07:57:33;;;;;;;20.70;13.02;;;;;;;9.95;57.12;101274.78;5053170;28;20051;-46
2022/03/13 08:00:00;;;;;;;18.52;12.73;;;;;;;9.94;56.93;101273.13;5052598;28;20047;-45
2022/03/13 08:02:28;;;;;;;22.58;12.75;;;;;;;9.95;56.51;101275.59;5052727;28;20049;-44
2022/03/13 08:04:56;;;;;;;20.00;12.52;;;;;;;9.95;56.13;101280.22;5056400;28;20080;-45
2022/03/13 08:07:24;;;;;;;17.13;12.45;;;;;;;9.96;55.60;101277.25;5070727;28;20090;-46
2022/03/13 08:09:51;;;;;;;17.92;12.15;;;;;;;9.97;55.10;101273.44;5054466;28;20048;-47
2022/03/13 08:12:19;;;;;;;21.73;13.32;;;;;;;9.94;54.53;101279.41;5071580;28;20051;-43
2022/03/13 08:14:46;;;;;;;17.83;12.45;;;;;;;9.93;54.41;101266.88;5070714;28;20134;-42
2022/03/13 08:17:15;;;;;;;17.27;11.95;;;;;;;9.92;53.77;101272.56;5065569;28;20039;-43
2022/03/13 08:19:43;;;;;;;18.15;12.45;;;;;;;9.89;54.28;101265.72;5066484;28;20041;-47
2022/03/13 08:22:11;;;;;;;18.70;12.82;;;;;;;9.94;54.29;101273.13;5055476;28;20492;-46
2022/03/13 08:24:39;;;;;;;17.90;12.55;;;;;;;9.94;53.78;101273.13;5051445;28;20417;-43
2022/03/13 08:27:06;;;;;;;21.67;13.80;;;;;;;9.91;54.21;101274.47;4351111;28;9999925;-43
2022/03/13 08:29:34;;;;;;;21.60;13.32;;;;;;;9.93;54.20;101266.88;5069186;28;20047;-42
2022/03/13 08:32:02;;;;;;;19.67;12.85;;;;;;;10.00;54.27;101261.22;5052889;28;20041;-41
2022/03/13 08:34:30;;;;;;;19.65;13.32;;;;;;;10.00;53.85;101266.66;5035719;28;20045;-45
2022/03/13 08:37:03;;;;;;;20.80;12.98;;;;;;;9.97;52.90;101261.72;5067380;28;20045;-44
2022/03/13 08:39:32;;;;;;;19.00;13.00;;;;;;;9.86;52.64;101265.38;5066483;28;20049;-42
2022/03/13 08:41:59;;;;;;;18.48;12.52;;;;;;;9.88;52.82;101268.69;5041184;28;20037;-47
2022/03/13 08:44:27;;;;;;;19.45;13.20;;;;;;;9.92;52.84;101264.41;5056573;28;20495;-45
2022/03/13 08:46:55;;;;;;;20.23;12.43;;;;;;;9.98;53.05;101266.09;5046802;28;20052;-44
2022/03/13 08:49:22;;;;;;;18.90;12.73;;;;;;;10.00;52.23;101262.03;5035472;28;20116;-42
2022/03/13 08:51:50;;;;;;;17.08;11.77;;;;;;;10.11;52.29;101270.34;5060735;28;20064;-43
2022/03/13 08:54:20;;;;;;;20.73;12.52;;;;;;;10.14;51.62;101267.94;5071496;28;20099;-46
2022/03/13 08:56:48;;;;;;;19.65;11.98;;;;;;;10.18;53.75;101268.25;5050635;28;20037;-42
2022/03/13 08:59:19;;;;;;;19.30;12.48;;;;;;;10.28;52.36;101262.09;5053336;28;20080;-47
2022/03/13 09:01:48;;;;;;;19.73;12.80;;;;;;;10.35;51.46;101268.22;5072986;28;20037;-46
2022/03/13 09:04:16;;;;;;;21.90;12.88;;;;;;;10.38;50.35;101264.97;5072592;28;20040;-46
2022/03/13 09:06:46;;;;;;;19.48;12.32;;;;;;;10.34;50.58;101263.81;5067528;28;20044;-48
2022/03/13 09:09:14;;;;;;;18.23;12.93;;;;;;;10.34;50.67;101259.22;5052263;28;20061;-47
2022/03/13 09:11:42;;;;;;;23.48;12.88;;;;;;;10.41;51.10;101256.28;5064745;28;20052;-46
2022/03/13 09:14:10;;;;;;;18.23;12.10;;;;;;;10.51;51.20;101241.94;5039168;28;20040;-46
2022/03/13 09:16:38;;;;;;;19.00;13.32;;;;;;;10.57;50.13;101249.91;5068940;28;20048;-48
2022/03/13 09:19:06;;;;;;;18.85;11.95;;;;;;;10.54;50.07;101244.97;5053323;28;20049;-46
2022/03/13 09:21:38;;;;;;;18.65;12.90;;;;;;;10.58;50.70;101250.72;5047534;28;20079;-48
2022/03/13 09:24:07;;;;;;;18.42;13.02;;;;;;;10.65;50.28;101248.63;5072283;28;20048;-49
2022/03/13 09:26:41;;;;;;;19.58;13.20;;;;;;;10.69;50.76;101246.22;5059310;28;20056;-45
2022/03/13 09:29:09;;;;;;;20.27;11.90;;;;;;;10.75;51.02;101246.00;5070543;28;20044;-46
2022/03/13 09:31:36;;;;;;;20.65;13.13;;;;;;;10.83;50.82;101255.59;5056555;28;20067;-48
2022/03/13 09:34:04;;;;;;;22.30;13.50;;;;;;;10.88;51.22;101248.28;5065843;28;20748;-48
2022/03/13 09:36:36;;;;;;;20.05;13.88;;;;;;;10.94;50.85;101240.97;5071413;28;20032;-48
2022/03/13 09:39:07;;;;;;;19.45;13.68;;;;;;;10.99;50.50;101241.03;5041190;28;20467;-48
2022/03/13 09:41:37;;;;;;;22.67;14.27;;;;;;;11.05;50.46;101236.44;5039446;28;20052;-46
2022/03/13 09:44:07;;;;;;;27.40;14.68;;;;;;;11.11;50.52;101245.47;5042446;28;20051;-48
2022/03/13 09:46:36;;;;;;;23.42;15.13;;;;;;;11.16;50.51;101235.44;5054121;28;20062;-45
2022/03/13 09:49:06;;;;;;;23.08;14.43;;;;;;;11.21;50.09;101237.38;5070928;28;20502;-45
2022/03/13 09:51:34;;;;;;;21.17;13.07;;;;;;;11.29;50.60;101239.59;5071063;28;20157;-44
2022/03/13 09:54:02;;;;;;;22.42;14.05;;;;;;;11.32;50.15;101239.06;5051829;28;20040;-47
2022/03/13 09:56:30;;;;;;;23.90;14.10;;;;;;;11.38;51.14;101238.03;5068221;28;20061;-49
2022/03/13 09:58:57;;;;;;;22.23;14.88;;;;;;;11.42;50.99;101236.41;5063124;28;20126;-47
2022/03/13 10:01:25;;;;;;;22.75;14.55;;;;;;;11.45;50.92;101246.81;5051871;28;20533;-47
2022/03/13 10:03:54;;;;;;;21.23;13.90;;;;;;;11.48;50.39;101242.72;5067962;28;20420;-46
2022/03/13 10:06:22;;;;;;;22.95;13.90;;;;;;;11.50;50.66;101241.38;5037470;28;20579;-47
2022/03/13 10:08:50;;;;;;;18.67;13.25;;;;;;;11.55;51.52;101247.97;5065298;28;20053;-49
2022/03/13 10:11:33;;;;;;;22.15;15.13;;;;;;;11.63;52.10;101244.72;5065922;28;20039;-48
2022/03/13 10:14:07;;;;;;;22.45;15.30;;;;;;;11.67;51.67;101243.94;5067443;28;20051;-46
2022/03/13 10:16:37;;;;;;;21.55;13.25;;;;;;;11.74;53.63;101246.44;5074717;28;20558;-46
2022/03/13 10:19:18;;;;;;;20.88;14.02;;;;;;;11.82;53.45;101232.25;5074036;28;20041;-45
2022/03/13 10:22:05;;;;;;;19.73;14.18;;;;;;;11.90;52.60;101236.41;5043875;28;20060;-47
2022/03/13 10:24:40;;;;;;;22.27;13.82;;;;;;;11.90;51.93;101234.50;5074564;28;20123;-47
2022/03/13 10:27:11;;;;;;;19.25;13.32;;;;;;;11.86;52.47;101227.91;5074415;28;20119;-47
2022/03/13 10:29:40;;;;;;;22.80;14.10;;;;;;;11.90;51.99;101223.56;5069537;28;20344;-47
2022/03/13 10:32:10;;;;;;;24.33;13.68;;;;;;;11.92;51.96;101221.41;5036483;28;20120;-46
2022/03/13 10:34:38;;;;;;;19.23;13.90;;;;;;;11.90;51.45;101218.09;5054531;28;20087;-47
2022/03/13 10:37:06;;;;;;;19.30;13.38;;;;;;;11.94;51.57;101207.50;5054302;28;20057;-44
2022/03/13 10:39:34;;;;;;;18.90;12.93;;;;;;;11.94;51.81;101205.56;5054759;28;20116;-48
2022/03/13 10:42:03;;;;;;;19.25;12.93;;;;;;;11.99;51.71;101207.50;5074183;28;20407;-45
2022/03/13 10:44:36;;;;;;;19.58;12.85;;;;;;;12.04;51.50;101217.63;5039574;28;20049;-46
2022/03/13 10:47:08;;;;;;;35.20;15.68;;;;;;;12.11;52.60;101212.72;5074125;28;20052;-46
2022/03/13 10:49:40;;;;;;;19.45;13.32;;;;;;;12.12;51.98;101212.47;5067235;28;20045;-45
2022/03/13 10:52:30;;;;;;;18.05;13.25;;;;;;;12.11;51.46;101210.00;5036620;28;20048;-45
2022/03/13 10:55:32;;;;;;;18.02;12.38;;;;;;;12.12;52.03;101197.97;5037135;28;20047;-47
2022/03/13 10:58:00;;;;;;;19.02;12.80;;;;;;;12.14;51.48;101207.53;5033612;28;20092;-42
2022/03/13 11:00:28;;;;;;;19.60;13.10;;;;;;;12.20;51.71;101200.19;5055022;28;20053;-44
2022/03/13 11:03:12;;;;;;;17.88;12.40;;;;;;;12.24;51.39;101204.03;5035902;28;20049;-46
2022/03/13 11:05:41;;;;;;;16.52;12.35;;;;;;;12.28;51.31;101201.56;5053537;28;20495;-47
2022/03/13 11:08:08;;;;;;;17.98;12.52;;;;;;;12.32;51.72;101191.75;5019366;28;20049;-46
2022/03/13 11:10:38;;;;;;;18.35;12.43;;;;;;;12.36;51.84;101192.84;5069512;28;20124;-46
2022/03/13 11:13:05;;;;;;;23.40;12.68;;;;;;;12.40;52.08;101180.28;5073376;28;20044;-45
2022/03/13 11:15:35;;;;;;;39.53;14.82;;;;;;;12.60;59.54;101192.31;5073437;28;20040;-42
2022/03/13 11:18:07;;;;;;;28.17;14.20;;;;;;;12.67;53.85;101192.88;5073494;28;20044;-43
2022/03/13 11:20:34;;;;;;;16.20;12.40;;;;;;;12.62;51.43;101180.03;5071096;28;20041;-45